Latest Weather Observations for Tasman Island

IDT60901

Issued at 5:51 pm EDT Saturday 25 February 2017 (issued every 10 minutes, with the page automatically refreshed every 10 minutes)

About weather observations | Map of Hobart area stations | Latest observations for Hobart area | Other Formats
Station Details ID: 094155 Name: TASMAN ISLAND Lat: -43.24 Lon: 148.00 Height: 240.0 m
Data from the previous 72 hours. | See also: Recent months at Tasman Island
Date/Time
EDT
Temp
°C
App
Temp
°C
Dew
Point
°C
Rel
Hum
%
Delta-T
°C
Wind Press
QNH
hPa
Press
MSL
hPa
Rain since
9am
mm
Dir  Spd
km/h
Gust
km/h
Spd
kts
Gust
kts
25/05:30pm 13.9 10.2 6.3 60 3.7 SSW 15 22 8 12 1025.9 1025.7 0.0
25/05:00pm 14.1 10.4 6.5 60 3.7 SSW 15 24 8 13 1025.8 1025.6 0.0
25/04:30pm 14.7 10.4 6.8 59 3.9 SSW 19 26 10 14 1026.1 1025.9 0.0
25/04:00pm 15.0 11.3 6.3 56 4.2 SSW 15 26 8 14 1026.2 1026.0 0.0
25/03:30pm 15.5 11.7 6.0 53 4.6 SW 15 20 8 11 1026.4 1026.2 0.0
25/03:00pm 15.5 11.1 4.6 48 5.1 SW 17 24 9 13 1026.5 1026.3 0.0
25/02:30pm 15.3 10.0 5.2 51 4.8 SW 22 32 12 17 1026.8 1026.6 0.0
25/02:00pm 15.8 12.2 4.8 48 5.2 SW 13 35 7 19 1027.0 1026.8 0.0
25/01:30pm 14.7 10.4 5.2 53 4.5 SW 17 43 9 23 1026.9 1026.7 0.0
25/01:00pm 14.4 11.1 6.3 58 3.9 SW 13 32 7 17 1026.8 1026.6 0.0
25/12:30pm 14.7 10.8 7.0 60 3.8 WSW 17 32 9 17 1026.9 1026.7 0.0
25/12:00pm 14.1 10.5 6.7 61 3.6 WSW 15 32 8 17 1027.0 1026.8 0.0
25/11:30am 13.5 9.9 6.8 64 3.3 WSW 15 33 8 18 1026.9 1026.7 0.0
25/11:00am 13.1 10.6 6.5 64 3.2 WSW 9 28 5 15 1027.0 1026.8 0.0
25/10:30am 12.8 10.4 6.8 67 2.9 NW 9 32 5 17 1026.8 1026.6 0.0
25/10:00am 12.4 10.2 6.0 65 3.0 SSW 7 17 4 9 1026.7 1026.5 0.0
25/09:30am 12.2 10.1 5.8 65 3.0 N 6 15 3 8 1026.6 1026.4 0.0
25/09:00am 11.9 9.2 5.5 65 3.0 NNE 9 26 5 14 1026.4 1026.2 -
25/08:30am 11.7 9.0 5.6 66 2.9 WNW 9 30 5 16 1026.1 1025.9 -
25/08:00am 11.3 8.7 6.0 70 2.5 SSW 9 35 5 19 1025.8 1025.6 -
25/07:30am 10.7 6.9 5.9 72 2.3 W 15 37 8 20 1025.8 1025.6 -
25/07:00am 10.6 6.8 5.6 71 2.3 WSW 15 43 8 23 1025.5 1025.3 -
25/06:30am 10.6 7.9 5.8 72 2.2 SE 9 28 5 15 1025.2 1025.0 -
25/06:00am 10.7 7.3 5.7 71 2.3 SW 13 33 7 18 1025.1 1024.8 -
25/05:30am 10.7 7.3 5.7 71 2.3 WSW 13 37 7 20 1024.9 1024.6 -
25/05:00am 10.8 8.0 5.1 68 2.6 SW 9 28 5 15 1024.8 1024.5 -
25/04:30am 11.0 7.8 5.1 67 2.7 WSW 11 35 6 19 1024.6 1024.3 -
25/04:00am 10.9 8.2 5.4 69 2.5 NW 9 24 5 13 1024.6 1024.3 -
25/03:30am 11.0 8.6 5.1 67 2.7 SSE 7 26 4 14 1024.5 1024.2 -
25/03:00am 11.1 7.5 5.2 67 2.7 W 13 32 7 17 1024.5 1024.2 0.0
25/02:30am 11.2 7.3 5.3 67 2.7 WSW 15 37 8 20 1024.5 1024.2 -
25/02:00am 11.1 7.2 5.4 68 2.6 SW 15 33 8 18 1024.5 1024.2 -
25/01:30am 11.3 6.4 4.3 62 3.2 SW 19 39 10 21 1024.5 1024.2 -
25/01:00am 11.3 4.6 3.8 60 3.4 SW 28 54 15 29 1024.1 1023.8 -
25/12:45am 11.4 4.8 4.2 61 3.3 SW 28 52 15 28 1024.2 1023.9 -
25/12:30am 11.3 5.5 4.3 62 3.2 SW 24 54 13 29 1024.2 1023.9 -
25/12:00am 11.4 3.9 4.6 63 3.1 SW 33 57 18 31 1024.0 1023.7 -
 
Date/Time
EDT
Temp
°C
App
Temp
°C
Dew
Point
°C
Rel
Hum
%
Delta-T
°C
Wind Press
QNH
hPa
Press
MSL
hPa
Rain since
9am
mm
Dir  Spd
km/h
Gust
km/h
Spd
kts
Gust
kts
24/11:40pm 11.5 5.1 5.2 65 2.9 SSW 28 59 15 32 1024.3 1024.0 -
24/11:30pm 11.5 5.5 5.4 66 2.9 SW 26 56 14 30 1024.3 1024.0 -
24/11:00pm 11.6 6.5 5.9 68 2.7 SW 22 57 12 31 1024.1 1023.8 -
24/10:30pm 10.8 3.7 8.2 84 1.3 SW 35 61 19 33 1024.2 1023.9 -
24/10:00pm 11.5 3.7 8.4 81 1.5 SW 39 63 21 34 1023.7 1023.4 -
24/09:51pm 11.9 6.7 7.4 74 2.2 SSW 24 61 13 33 1023.6 1023.3 -
24/09:30pm 12.1 7.5 6.4 68 2.7 SW 20 48 11 26 1023.4 1023.1 -
24/09:00pm 12.1 5.1 5.9 66 2.9 SSW 32 56 17 30 1023.2 1022.9 36.0
24/08:31pm 12.3 3.6 5.9 65 3.0 SW 41 67 22 36 1022.4 1022.2 -
24/08:30pm 12.3 3.2 5.9 65 3.0 SW 43 59 23 32 1022.4 1022.2 -
24/08:00pm 12.3 4.9 6.8 69 2.7 SW 35 61 19 33 1022.4 1022.2 -
24/07:30pm 12.4 5.6 7.7 73 2.3 SW 33 59 18 32 1021.9 1021.7 -
24/07:00pm 12.9 6.5 6.9 67 2.9 SW 30 61 16 33 1021.4 1021.1 -
24/06:51pm 12.8 6.9 7.7 71 2.5 SW 28 56 15 30 1021.4 1021.1 -
24/06:30pm 12.9 8.1 5.6 61 3.5 SW 20 50 11 27 1021.3 1021.0 -
24/06:01pm 13.0 7.0 7.2 68 2.8 SW 28 63 15 34 1021.0 1020.7 -
24/06:00pm 12.9 7.2 6.7 66 3.0 SW 26 54 14 29 1021.1 1020.8 -
24/05:35pm 13.3 7.0 5.9 61 3.5 SSW 28 61 15 33 1021.1 1020.8 -
24/05:30pm 13.3 8.6 5.9 61 3.5 SSW 20 46 11 25 1021.1 1020.8 -
24/05:00pm 13.4 10.0 7.8 69 2.8 SW 15 44 8 24 1020.9 1020.6 -
24/04:30pm 13.3 8.3 6.4 63 3.3 SW 22 52 12 28 1020.6 1020.3 -
24/04:00pm 13.2 6.2 7.0 66 3.0 SW 33 65 18 35 1020.4 1020.1 -
24/03:30pm 13.3 7.8 9.2 76 2.1 SSW 28 63 15 34 1020.2 1019.9 -
24/03:24pm 13.1 7.8 9.9 81 1.7 SSW 28 63 15 34 1020.2 1019.9 -
24/03:00pm 16.0 13.5 8.2 60 4.0 SW 11 32 6 17 1020.6 1020.3 -
24/02:30pm 15.6 13.7 7.4 58 4.1 W 7 28 4 15 1020.4 1020.1 -
24/02:00pm 16.6 13.2 7.5 55 4.6 W 15 28 8 15 1020.2 1019.9 -
24/01:30pm 16.9 14.4 8.1 56 4.5 W 11 28 6 15 1020.2 1019.9 -
24/01:00pm 17.1 15.7 8.8 58 4.3 ENE 6 26 3 14 1020.3 1020.0 -
24/12:30pm 16.5 - 7.4 55 4.6 - - - - - 1020.3 1020.0 0.0
24/12:00pm 16.5 13.0 7.4 55 4.6 NW 15 37 8 20 1020.5 1020.2 0.0
24/11:30am 15.7 12.7 7.5 58 4.1 WNW 13 39 7 21 1020.6 1020.3 0.0
24/11:00am 15.3 10.8 7.1 58 4.1 WNW 20 43 11 23 1020.4 1020.1 0.0
24/10:30am 14.6 10.7 7.2 61 3.7 WNW 17 39 9 21 1020.3 1020.0 0.0
24/10:00am 14.1 11.6 6.7 61 3.6 W 9 30 5 16 1020.4 1020.1 0.0
24/09:30am 13.2 11.1 6.8 65 3.1 WSW 7 26 4 14 1020.5 1020.2 0.0
24/09:00am 12.9 10.4 6.5 65 3.1 NNW 9 26 5 14 1020.4 1020.1 -
24/08:30am 12.7 10.6 6.5 66 3.0 NNE 7 26 4 14 1020.1 1019.8 -
24/08:00am 12.7 10.6 6.7 67 2.9 N 7 26 4 14 1019.9 1019.6 -
24/07:30am 12.5 10.0 6.5 67 2.9 WSW 9 24 5 13 1019.7 1019.4 -
24/07:00am 12.4 10.0 6.9 69 2.7 WNW 9 24 5 13 1019.6 1019.3 -
24/06:30am 12.3 10.2 6.8 69 2.7 NW 7 24 4 13 1019.4 1019.1 -
24/06:00am 12.4 10.6 7.3 71 2.5 WNW 6 17 3 9 1019.1 1018.8 -
24/05:30am 12.4 10.7 7.5 72 2.4 WNW 6 26 3 14 1018.9 1018.6 -
24/05:00am 12.5 9.5 7.8 73 2.3 W 13 35 7 19 1019.0 1018.7 -
24/04:30am 12.7 9.0 8.0 73 2.3 WSW 17 39 9 21 1018.9 1018.6 -
24/04:00am 12.6 9.1 8.7 77 2.0 WSW 17 32 9 17 1019.0 1018.7 -
24/03:30am 12.8 9.1 9.4 80 1.7 WSW 19 32 10 17 1019.0 1018.7 -
24/03:00am 12.5 9.3 9.9 84 1.3 WSW 17 26 9 14 1019.0 1018.7 0.4
24/02:30am 12.5 9.7 9.9 84 1.3 WSW 15 30 8 16 1019.0 1018.7 -
24/02:00am 12.4 8.6 9.8 84 1.3 SW 20 39 11 21 1019.1 1018.8 -
24/01:30am 12.1 9.2 9.8 86 1.2 WSW 15 24 8 13 1019.4 1019.1 -
24/01:00am 11.8 8.6 9.9 88 1.0 SW 17 33 9 18 1019.6 1019.3 -
24/12:30am 11.9 8.3 10.0 88 1.0 SW 19 44 10 24 1019.5 1019.2 -
24/12:00am 12.4 6.4 10.1 86 1.2 SW 32 54 17 29 1019.4 1019.1 -
 
Date/Time
EDT
Temp
°C
App
Temp
°C
Dew
Point
°C
Rel
Hum
%
Delta-T
°C
Wind Press
QNH
hPa
Press
MSL
hPa
Rain since
9am
mm
Dir  Spd
km/h
Gust
km/h
Spd
kts
Gust
kts
23/11:41pm 12.8 7.5 9.8 82 1.6 SW 28 48 15 26 1019.3 1019.0 -
23/11:30pm 12.8 7.4 9.4 80 1.7 SW 28 43 15 23 1019.3 1019.0 -
23/11:00pm 12.9 7.6 9.9 82 1.6 SW 28 43 15 23 1019.2 1018.9 -
23/10:30pm 12.7 8.7 10.4 86 1.2 SW 22 35 12 19 1019.2 1018.9 -
23/10:00pm 12.8 8.2 11.2 90 0.9 SW 26 44 14 24 1018.7 1018.5 -
23/09:30pm 13.1 7.9 11.5 90 0.9 SW 30 48 16 26 1018.3 1018.1 -
23/09:00pm 13.3 8.6 12.0 92 0.7 SSW 28 54 15 29 1017.5 1017.2 -
23/08:37pm 13.3 8.6 12.0 92 0.7 SW 28 50 15 27 1017.1 1016.8 -
23/08:30pm 13.6 10.2 12.5 93 0.6 SSW 22 43 12 23 1017.0 1016.7 -
23/08:03pm 13.9 9.4 12.6 92 0.7 SW 28 46 15 25 1016.5 1016.2 -
23/08:00pm 13.9 9.4 12.6 92 0.7 SW 28 46 15 25 1016.4 1016.1 -
23/07:54pm 13.9 9.4 12.6 92 0.7 SW 28 46 15 25 1016.3 1016.0 -
23/07:30pm 14.6 11.9 13.0 90 0.9 SSW 19 39 10 21 1015.9 1015.6 -
23/07:00pm 15.7 13.2 13.5 87 1.2 SW 19 32 10 17 1015.4 1015.1 -
23/06:30pm 16.1 14.8 13.8 86 1.3 SSW 13 20 7 11 1015.0 1014.7 -
23/06:00pm 16.7 15.4 13.8 83 1.7 SSW 13 20 7 11 1014.5 1014.2 -
23/05:30pm 17.5 17.1 14.0 80 2.0 SSE 9 15 5 8 1013.8 1013.5 -
23/05:00pm 17.9 16.6 13.8 77 2.4 S 13 19 7 10 1013.7 1013.4 -
23/04:30pm 18.5 17.1 14.6 78 2.3 S 15 24 8 13 1013.3 1013.0 -
23/04:00pm 18.4 16.9 14.3 77 2.4 SSE 15 20 8 11 1013.1 1012.8 -
23/03:30pm 19.6 19.3 14.4 72 3.0 SE 9 13 5 7 1012.8 1012.5 -
23/03:00pm 21.3 19.7 12.7 58 4.9 W 13 24 7 13 1012.4 1012.1 -
23/02:30pm 20.5 20.5 13.7 65 4.0 ENE 6 11 3 6 1012.2 1011.9 0.0
23/02:00pm 19.1 18.6 13.9 72 3.0 ENE 9 15 5 8 1012.1 1011.8 0.0
23/01:30pm 19.0 18.4 14.7 76 2.5 ENE 11 17 6 9 1011.6 1011.3 0.0
23/01:00pm 18.4 17.9 14.9 80 2.1 E 11 20 6 11 1011.3 1011.0 0.0
23/12:30pm 19.5 19.1 14.1 71 3.1 E 9 17 5 9 1010.8 1010.4 0.0
23/12:00pm 21.1 20.7 12.3 57 5.0 SE 6 9 3 5 1010.6 1010.2 0.0
23/11:30am 20.3 20.3 14.2 68 3.6 E 7 15 4 8 1010.4 1010.0 0.0
23/11:00am 21.6 20.6 11.0 51 5.9 W 7 11 4 6 1010.2 1009.8 0.0
23/10:30am 21.4 20.2 11.7 54 5.5 WNW 9 13 5 7 1010.1 1009.7 0.0
23/10:00am 19.7 19.0 11.5 59 4.6 W 6 9 3 5 1009.8 1009.5 0.0
23/09:30am 19.6 19.4 13.5 68 3.5 WSW 7 13 4 7 1009.5 1009.2 0.0
23/09:00am 18.7 18.0 13.3 71 3.1 SSW 9 15 5 8 1009.1 1008.8 0.0
23/08:30am 18.4 15.4 11.9 66 3.6 WSW 19 32 10 17 1008.2 1007.9 0.0
23/08:06am 20.0 13.4 9.9 52 5.5 NW 35 54 19 29 1007.5 1007.2 0.0
23/08:00am 20.0 12.6 9.9 52 5.5 NW 39 54 21 29 1007.3 1006.9 0.0
23/07:30am 19.9 11.8 10.0 53 5.4 NW 43 57 23 31 1006.8 1006.4 0.0
23/07:00am 18.8 12.8 10.9 60 4.3 NW 33 52 18 28 1006.5 1006.1 0.0
23/06:32am 19.2 11.6 10.5 57 4.7 NNW 41 63 22 34 1005.9 1005.5 0.0
23/06:30am 19.0 12.2 10.6 58 4.6 NNW 37 54 20 29 1006.0 1005.6 0.0
23/06:00am 17.3 12.0 13.0 76 2.4 N 33 43 18 23 1005.8 1005.4 0.0
23/05:30am 18.5 12.0 11.6 64 3.8 N 37 57 20 31 1005.0 1004.7 0.0
23/05:13am 17.7 13.1 12.4 71 3.0 NNE 28 48 15 26 1005.2 1004.9 0.0
23/05:00am 17.4 13.9 13.5 78 2.2 N 24 37 13 20 1005.8 1005.4 0.0
23/04:30am 16.6 15.1 14.2 86 1.4 N 15 24 8 13 1007.0 1006.6 0.0
23/04:00am 16.6 13.6 14.8 89 1.1 NNW 24 37 13 20 1006.7 1006.3 0.0
23/03:30am 16.4 12.1 15.3 93 0.6 NNE 32 39 17 21 1006.1 1005.7 0.0
23/03:00am 18.0 11.4 13.7 76 2.5 N 41 52 22 28 1006.7 1006.3 0.0
23/02:30am 17.9 10.0 13.8 77 2.4 N 48 59 26 32 1006.9 1006.5 0.0
23/02:00am 17.4 9.8 14.7 84 1.6 N 48 56 26 30 1007.4 1007.1 0.0
23/01:30am 17.6 8.3 14.3 81 1.9 N 56 65 30 35 1007.6 1007.3 0.0
23/01:00am 17.4 8.2 14.9 85 1.5 N 57 70 31 38 1007.8 1007.5 0.0
23/12:30am 16.7 7.8 15.4 92 0.8 N 56 67 30 36 1008.5 1008.2 0.0
23/12:00am 16.8 8.3 15.3 91 0.9 N 54 63 29 34 1009.0 1008.7 0.0
 
Date/Time
EDT
Temp
°C
App
Temp
°C
Dew
Point
°C
Rel
Hum
%
Delta-T
°C
Wind Press
QNH
hPa
Press
MSL
hPa
Rain since
9am
mm
Dir  Spd
km/h
Gust
km/h
Spd
kts
Gust
kts
22/11:30pm 16.8 10.4 15.3 91 0.9 N 43 56 23 30 1009.7 1009.4 0.0
22/11:00pm 16.8 10.8 15.5 92 0.8 N 41 50 22 27 1010.5 1010.1 0.0
22/10:30pm 16.6 10.7 15.6 94 0.6 NNE 41 56 22 30 1010.6 1010.2 0.0
22/10:00pm 16.5 11.0 15.7 95 0.5 N 39 50 21 27 1010.8 1010.4 0.0
22/09:30pm 16.9 10.9 15.4 91 0.9 N 41 52 22 28 1011.3 1011.0 0.0
22/09:00pm 16.6 10.1 15.6 94 0.6 N 44 57 24 31 1010.9 1010.6 0.0
22/08:30pm 16.6 10.7 15.6 94 0.6 N 41 61 22 33 1010.9 1010.6 0.0
22/08:16pm 16.8 11.1 15.3 91 0.9 N 39 59 21 32 1010.6 1010.2 0.0
22/08:00pm 16.8 10.6 15.0 89 1.1 N 41 54 22 29 1011.0 1010.7 0.0
22/07:30pm 17.2 9.8 14.3 83 1.7 N 46 63 25 34 1010.4 1010.0 0.0
22/07:27pm 17.2 9.1 14.3 83 1.7 N 50 65 27 35 1010.3 1009.9 0.0
22/07:00pm 16.7 6.3 14.9 89 1.1 N 63 78 34 42 1010.1 1009.7 0.0
22/06:30pm 16.8 7.5 14.8 88 1.2 N 57 76 31 41 1010.9 1010.6 0.0
22/06:00pm 16.9 8.5 14.5 86 1.4 N 52 65 28 35 1010.7 1010.3 0.0

Latest Capital City Observations: Canberra | Sydney | Melbourne | Brisbane | Adelaide | Perth | Hobart | Darwin

Other Formats:

Comma delimited format used in spreadsheet applications
http://www.bom.gov.au/fwo/IDT60901/IDT60901.95986.axf

JavaScript Object Notation format (JSON) in row-major order
http://www.bom.gov.au/fwo/IDT60901/IDT60901.95986.json